Time;durP1;ratioP1;P1;durP2;ratioP2;P2;SDS_P1;SDS_P2;PMS_P1;PMS_P2;Temp;Humidity;BMP_temperature;BMP_pressure;BME280_temperature;BME280_humidity;BME280_pressure;Samples;Min_cycle;Max_cycle;Signal;HPM_P1;HPM_P2
2021/06/05 00:00:58;;;;;;;6.73;4.93;;;27.10;53.00;;;;;;5015581;28;20456;-45
2021/06/05 00:03:25;;;;;;;7.37;4.40;;;27.20;52.50;;;;;;5014887;28;20440;-47
2021/06/05 00:05:57;;;;;;;7.03;5.67;;;27.30;52.00;;;;;;5021842;28;20939;-46
2021/06/05 00:08:25;;;;;;;6.40;5.80;;;27.40;52.90;;;;;;5024525;28;20540;-49
2021/06/05 00:10:55;;;;;;;5.70;4.50;;;27.40;53.30;;;;;;5021306;28;20445;-48
2021/06/05 00:13:26;;;;;;;5.50;4.20;;;27.40;53.40;;;;;;5019301;28;20440;-48
2021/06/05 00:15:52;;;;;;;8.27;5.60;;;27.40;53.00;;;;;;5019855;28;20460;-47
2021/06/05 00:18:19;;;;;;;6.17;4.20;;;27.40;53.00;;;;;;5020597;28;20478;-48
2021/06/05 00:20:45;;;;;;;4.97;4.47;;;27.30;52.60;;;;;;5027251;28;20563;-48
2021/06/05 00:23:13;;;;;;;5.83;4.37;;;27.40;52.00;;;;;;5023756;28;20552;-45
2021/06/05 00:25:39;;;;;;;4.73;4.27;;;27.40;52.00;;;;;;5028403;28;20448;-46
2021/06/05 00:28:05;;;;;;;7.17;3.90;;;27.50;51.50;;;;;;5029754;28;20444;-47
2021/06/05 00:30:32;;;;;;;4.50;4.00;;;27.50;51.20;;;;;;5017982;28;20452;-46
2021/06/05 00:32:58;;;;;;;4.20;3.80;;;27.60;51.10;;;;;;5030841;28;20205;-45
2021/06/05 00:35:27;;;;;;;5.80;3.83;;;27.60;50.90;;;;;;5025846;28;20474;-48
2021/06/05 00:37:53;;;;;;;4.50;3.37;;;27.70;50.80;;;;;;5027026;28;20436;-48
2021/06/05 00:40:21;;;;;;;4.70;4.40;;;27.70;50.60;;;;;;5014525;28;20853;-49
2021/06/05 00:42:47;;;;;;;5.07;4.20;;;27.30;51.70;;;;;;5022415;28;20613;-48
2021/06/05 00:45:15;;;;;;;4.20;3.90;;;27.20;52.50;;;;;;5021083;28;20566;-48
2021/06/05 00:47:41;;;;;;;5.27;4.63;;;27.10;52.70;;;;;;5023438;28;20197;-44
2021/06/05 00:50:09;;;;;;;5.47;3.63;;;27.00;53.10;;;;;;5025939;28;21259;-48
2021/06/05 00:52:35;;;;;;;5.37;4.03;;;26.90;52.80;;;;;;5027423;28;20444;-48
2021/06/05 00:55:03;;;;;;;3.30;2.83;;;27.10;52.60;;;;;;5020874;28;20448;-45
2021/06/05 00:57:29;;;;;;;3.83;3.53;;;27.20;52.20;;;;;;5025884;28;20464;-48
2021/06/05 00:59:54;;;;;;;4.93;3.60;;;27.20;51.60;;;;;;5022812;28;20530;-49
2021/06/05 01:02:20;;;;;;;4.57;3.60;;;27.20;51.30;;;;;;5025021;28;20197;-47
2021/06/05 01:04:46;;;;;;;4.23;2.60;;;27.30;50.90;;;;;;5025637;28;20191;-48
2021/06/05 01:07:25;;;;;;;2.50;2.30;;;27.30;50.10;;;;;;5018170;28;20193;-48
2021/06/05 01:10:04;;;;;;;2.50;2.00;;;27.10;49.80;;;;;;5017929;28;20251;-47
2021/06/05 01:12:48;;;;;;;3.30;3.00;;;26.90;50.40;;;;;;5018913;28;20535;-47
2021/06/05 01:15:31;;;;;;;2.30;1.73;;;26.90;50.70;;;;;;5022116;28;20435;-49
2021/06/05 01:18:02;;;;;;;3.90;2.27;;;27.00;50.60;;;;;;5015472;28;20481;-48
2021/06/05 01:20:31;;;;;;;3.20;2.67;;;27.00;49.90;;;;;;5017200;28;20849;-46
2021/06/05 01:23:25;;;;;;;1.83;1.73;;;26.80;49.70;;;;;;5016055;28;20821;-46
2021/06/05 01:26:20;;;;;;;1.90;1.80;;;26.70;49.70;;;;;;5012814;28;20884;-47
2021/06/05 01:29:04;;;;;;;1.87;1.77;;;26.80;50.30;;;;;;5021944;28;20463;-48
2021/06/05 01:31:34;;;;;;;2.70;2.50;;;26.80;50.00;;;;;;5014188;28;20467;-49
2021/06/05 01:34:00;;;;;;;2.60;2.20;;;26.90;49.90;;;;;;5015721;28;20449;-47
2021/06/05 01:36:27;;;;;;;1.67;1.57;;;27.00;49.70;;;;;;5018390;28;21005;-47
2021/06/05 01:38:57;;;;;;;4.07;1.90;;;27.00;49.70;;;;;;5013956;28;20460;-47
2021/06/05 01:41:26;;;;;;;2.37;1.83;;;26.90;49.90;;;;;;5016125;28;20444;-44
2021/06/05 01:43:53;;;;;;;1.80;1.70;;;26.80;49.80;;;;;;5017068;28;20466;-45
2021/06/05 01:46:22;;;;;;;2.20;2.10;;;26.80;50.00;;;;;;5017243;28;21163;-46
2021/06/05 01:48:48;;;;;;;1.70;1.60;;;26.90;49.80;;;;;;5013932;28;20919;-44
2021/06/05 01:51:17;;;;;;;2.20;1.50;;;26.90;49.60;;;;;;5015551;28;20493;-47
2021/06/05 01:54:05;;;;;;;2.40;2.13;;;27.00;49.50;;;;;;5017526;28;20213;-48
2021/06/05 01:56:48;;;;;;;4.53;1.83;;;27.00;49.20;;;;;;5014906;28;20496;-47
2021/06/05 01:59:16;;;;;;;2.77;1.67;;;27.00;49.10;;;;;;5016565;28;20494;-46
2021/06/05 02:01:42;;;;;;;2.43;1.70;;;27.00;49.00;;;;;;5012956;28;20869;-46
2021/06/05 02:04:09;;;;;;;2.93;1.70;;;27.00;48.80;;;;;;5018548;28;20441;-46
2021/06/05 02:06:34;;;;;;;1.90;1.63;;;27.00;48.90;;;;;;5030052;28;20575;-48
2021/06/05 02:09:04;;;;;;;3.43;1.97;;;26.80;48.60;;;;;;5017138;28;20448;-46
2021/06/05 02:11:32;;;;;;;1.87;1.60;;;26.50;49.60;;;;;;5018368;28;20197;-44
2021/06/05 02:14:13;;;;;;;4.13;1.60;;;26.50;49.80;;;;;;5015517;28;20483;-45
2021/06/05 02:16:42;;;;;;;2.77;1.13;;;26.50;49.00;;;;;;5015257;28;20467;-44
2021/06/05 02:19:19;;;;;;;1.60;1.50;;;26.30;47.50;;;;;;5017719;28;20574;-43
2021/06/05 02:21:46;;;;;;;1.50;1.40;;;26.20;48.30;;;;;;5015414;28;20502;-47
2021/06/05 02:24:26;;;;;;;2.30;1.33;;;26.20;48.60;;;;;;5015384;28;20494;-47
2021/06/05 02:26:52;;;;;;;2.03;1.83;;;26.20;48.90;;;;;;5018433;28;21124;-48
2021/06/05 02:29:22;;;;;;;1.43;1.33;;;26.30;49.10;;;;;;5012591;28;20443;-45
2021/06/05 02:31:48;;;;;;;1.80;1.60;;;26.50;49.10;;;;;;5015407;28;20229;-46
2021/06/05 02:34:18;;;;;;;3.77;1.73;;;26.50;48.80;;;;;;5017349;28;20808;-48
2021/06/05 02:36:46;;;;;;;2.17;1.63;;;26.60;48.70;;;;;;5016781;28;20553;-44
2021/06/05 02:39:15;;;;;;;2.00;1.50;;;26.80;48.50;;;;;;5021030;28;20468;-48
2021/06/05 02:41:42;;;;;;;1.60;1.50;;;26.80;48.30;;;;;;5019607;28;20444;-47
2021/06/05 02:44:09;;;;;;;4.00;1.60;;;26.90;48.10;;;;;;5021682;28;20490;-45
2021/06/05 02:46:38;;;;;;;1.80;1.70;;;26.90;48.00;;;;;;5020245;28;20459;-47
2021/06/05 02:49:07;;;;;;;2.00;1.33;;;26.90;47.90;;;;;;5024956;28;20463;-48
2021/06/05 02:51:42;;;;;;;2.50;1.37;;;27.00;47.90;;;;;;5018452;28;20510;-48
2021/06/05 02:54:08;;;;;;;2.10;1.30;;;27.00;47.80;;;;;;5019561;28;20811;-45
2021/06/05 02:56:34;;;;;;;1.50;1.40;;;27.00;47.80;;;;;;5018055;28;20449;-44
2021/06/05 02:58:59;;;;;;;1.60;1.50;;;26.90;47.60;;;;;;5017609;28;20283;-46
2021/06/05 03:01:26;;;;;;;1.70;1.60;;;26.90;47.60;;;;;;5020377;28;20440;-45
2021/06/05 03:03:51;;;;;;;1.63;1.53;;;26.90;47.70;;;;;;5015679;28;20201;-44
2021/06/05 03:06:18;;;;;;;1.77;1.50;;;26.90;47.60;;;;;;5022007;28;20477;-45
2021/06/05 03:08:44;;;;;;;2.30;1.40;;;26.90;47.50;;;;;;5017073;28;20289;-46
2021/06/05 03:11:15;;;;;;;1.40;1.30;;;26.90;47.50;;;;;;5015047;28;20611;-48
2021/06/05 03:13:42;;;;;;;1.30;1.30;;;26.90;47.40;;;;;;5017051;28;20437;-48
2021/06/05 03:16:09;;;;;;;1.53;1.40;;;26.90;47.40;;;;;;5018314;28;20444;-47
2021/06/05 03:18:35;;;;;;;2.43;1.40;;;27.00;47.30;;;;;;5022522;28;21047;-48
2021/06/05 03:21:02;;;;;;;2.00;1.50;;;27.00;47.10;;;;;;5018607;28;20472;-46
2021/06/05 03:23:30;;;;;;;1.43;1.27;;;27.00;47.30;;;;;;5019741;28;20444;-47
2021/06/05 03:25:57;;;;;;;2.23;1.40;;;26.90;47.30;;;;;;5019733;28;20463;-47
2021/06/05 03:28:25;;;;;;;1.67;1.57;;;26.90;47.20;;;;;;5026533;28;20449;-48
2021/06/05 03:30:51;;;;;;;2.10;1.50;;;26.90;47.40;;;;;;5021504;28;20443;-47
2021/06/05 03:33:18;;;;;;;1.37;1.27;;;26.90;47.50;;;;;;5023233;28;20455;-44
2021/06/05 03:35:44;;;;;;;3.20;1.60;;;26.90;47.60;;;;;;5021717;28;20198;-45
2021/06/05 03:38:10;;;;;;;3.10;1.60;;;26.80;48.20;;;;;;5022635;28;20440;-45
2021/06/05 03:40:38;;;;;;;1.53;1.43;;;26.80;48.30;;;;;;5016798;28;21167;-46
2021/06/05 03:43:04;;;;;;;2.00;1.70;;;26.70;48.40;;;;;;5019898;28;20444;-45
2021/06/05 03:45:29;;;;;;;3.20;1.63;;;26.70;48.60;;;;;;5025388;28;20460;-47
2021/06/05 03:47:55;;;;;;;4.33;2.07;;;26.60;48.70;;;;;;5022325;28;20441;-48
2021/06/05 03:50:29;;;;;;;6.30;1.67;;;26.60;48.80;;;;;;5019726;28;20205;-47
2021/06/05 03:52:56;;;;;;;2.00;1.80;;;26.60;48.70;;;;;;5011899;28;20205;-45
2021/06/05 03:55:21;;;;;;;2.07;1.60;;;26.60;48.80;;;;;;5022016;28;20440;-48
2021/06/05 03:57:47;;;;;;;1.60;1.50;;;26.60;48.80;;;;;;5017711;28;20451;-48
2021/06/05 04:00:18;;;;;;;2.10;1.47;;;26.60;48.50;;;;;;5022244;28;20613;-43
2021/06/05 04:02:43;;;;;;;2.63;1.87;;;26.70;48.40;;;;;;5022057;28;20925;-48
2021/06/05 04:05:11;;;;;;;1.80;1.40;;;26.70;48.50;;;;;;5017291;28;20516;-45
2021/06/05 04:07:37;;;;;;;8.23;1.90;;;26.80;48.50;;;;;;5018673;28;20255;-43
2021/06/05 04:10:05;;;;;;;3.50;2.00;;;26.80;48.40;;;;;;5026047;28;20448;-45
2021/06/05 04:12:31;;;;;;;1.83;1.50;;;26.80;48.50;;;;;;5023440;28;20798;-44
2021/06/05 04:14:56;;;;;;;1.33;1.20;;;26.80;48.40;;;;;;5018469;28;20558;-47
2021/06/05 04:17:22;;;;;;;1.90;1.70;;;26.80;48.40;;;;;;5021878;28;20322;-44
2021/06/05 04:19:48;;;;;;;2.67;1.70;;;26.80;48.70;;;;;;5014874;28;20307;-43
2021/06/05 04:22:14;;;;;;;1.77;1.67;;;26.70;48.70;;;;;;5018609;28;21886;-44
2021/06/05 04:24:39;;;;;;;3.37;1.63;;;26.40;50.10;;;;;;5019378;28;20185;-43
2021/06/05 04:27:06;;;;;;;2.13;1.60;;;26.30;49.90;;;;;;5027150;28;20197;-44
2021/06/05 04:29:32;;;;;;;2.33;1.70;;;26.00;51.00;;;;;;5019725;28;20637;-43
2021/06/05 04:31:58;;;;;;;5.00;1.60;;;26.10;50.80;;;;;;5016156;28;20448;-46
2021/06/05 04:34:24;;;;;;;2.60;1.63;;;26.10;50.50;;;;;;5018005;28;20776;-45
2021/06/05 04:36:51;;;;;;;3.20;1.67;;;26.10;50.50;;;;;;5024699;28;20452;-44
2021/06/05 04:39:18;;;;;;;2.10;1.90;;;26.20;50.40;;;;;;5016998;28;20336;-45
2021/06/05 04:41:44;;;;;;;2.50;1.80;;;26.20;50.30;;;;;;5020684;28;20444;-48
2021/06/05 04:44:10;;;;;;;2.63;1.40;;;26.30;50.10;;;;;;5019949;28;20444;-44
2021/06/05 04:46:36;;;;;;;2.00;1.50;;;26.40;50.10;;;;;;5020984;28;20193;-45
2021/06/05 04:49:02;;;;;;;1.70;1.60;;;26.40;49.90;;;;;;5022315;28;20450;-45
2021/06/05 04:51:29;;;;;;;4.87;2.80;;;26.40;49.90;;;;;;5017647;28;20468;-44
2021/06/05 04:53:55;;;;;;;3.90;2.80;;;26.20;50.40;;;;;;5016535;28;20955;-44
2021/06/05 04:56:35;;;;;;;2.97;1.93;;;26.10;51.20;;;;;;5019509;28;20471;-44
2021/06/05 04:59:01;;;;;;;4.63;2.50;;;26.10;51.10;;;;;;5018230;28;20451;-43
2021/06/05 05:01:26;;;;;;;2.80;2.10;;;25.80;52.10;;;;;;5023323;28;20543;-44
2021/06/05 05:03:52;;;;;;;2.20;1.73;;;25.10;54.20;;;;;;5023222;28;20190;-46
2021/06/05 05:06:17;;;;;;;3.30;1.90;;;24.80;54.90;;;;;;5014817;28;20267;-44
2021/06/05 05:08:43;;;;;;;4.93;2.60;;;24.80;54.90;;;;;;5013864;28;20189;-43
2021/06/05 05:11:10;;;;;;;3.23;2.63;;;24.80;55.30;;;;;;5025931;28;20283;-45
2021/06/05 05:13:35;;;;;;;4.93;2.27;;;24.80;55.50;;;;;;5026064;28;20566;-44
2021/06/05 05:16:03;;;;;;;2.80;2.40;;;24.90;55.00;;;;;;5026523;28;20436;-43
2021/06/05 05:18:29;;;;;;;3.40;2.47;;;25.00;55.00;;;;;;5024205;28;20592;-46
2021/06/05 05:20:56;;;;;;;2.93;2.73;;;25.20;54.60;;;;;;5022916;28;20558;-43
2021/06/05 05:23:27;;;;;;;2.63;2.20;;;25.30;54.40;;;;;;5021839;28;20444;-44
2021/06/05 05:25:56;;;;;;;2.70;2.40;;;25.30;54.30;;;;;;5029092;28;20459;-43
2021/06/05 05:28:22;;;;;;;3.83;2.57;;;25.40;54.40;;;;;;5019186;28;20471;-42
2021/06/05 05:30:51;;;;;;;3.27;2.70;;;25.40;54.40;;;;;;5022558;28;20448;-42
2021/06/05 05:33:19;;;;;;;2.43;2.03;;;25.20;54.70;;;;;;5013010;28;20429;-43
2021/06/05 05:35:45;;;;;;;2.57;2.37;;;25.20;54.80;;;;;;5022664;28;20514;-43
2021/06/05 05:38:11;;;;;;;2.37;2.17;;;25.10;54.80;;;;;;5022718;28;20752;-43
2021/06/05 05:40:39;;;;;;;2.10;1.83;;;25.30;54.50;;;;;;5025546;28;20502;-43
2021/06/05 05:43:05;;;;;;;4.40;2.40;;;25.40;54.00;;;;;;5015746;28;20480;-43
2021/06/05 05:45:31;;;;;;;6.43;1.97;;;25.20;54.10;;;;;;5026536;28;20456;-43
2021/06/05 05:47:59;;;;;;;3.97;1.80;;;25.10;54.00;;;;;;5026560;28;20215;-42
2021/06/05 05:50:27;;;;;;;2.53;1.80;;;25.20;54.00;;;;;;5020760;28;20224;-45
2021/06/05 05:52:53;;;;;;;4.40;2.20;;;25.30;53.70;;;;;;5025173;28;20432;-44
2021/06/05 05:55:19;;;;;;;3.47;2.13;;;25.30;53.70;;;;;;5023950;28;20458;-43
2021/06/05 05:57:47;;;;;;;3.80;1.60;;;25.40;53.50;;;;;;5022697;28;20205;-43
2021/06/05 06:00:17;;;;;;;2.27;1.90;;;25.30;53.70;;;;;;5019036;28;20264;-44
2021/06/05 06:02:42;;;;;;;3.47;1.80;;;25.20;53.60;;;;;;5027129;28;20714;-42
2021/06/05 06:05:09;;;;;;;1.70;1.60;;;25.30;53.60;;;;;;5029131;28;20444;-42
2021/06/05 06:07:35;;;;;;;3.23;1.50;;;25.40;53.30;;;;;;5024777;28;20657;-43
2021/06/05 06:10:01;;;;;;;1.80;1.70;;;25.60;53.00;;;;;;5026832;28;20492;-44
2021/06/05 06:12:27;;;;;;;2.30;1.43;;;25.70;52.60;;;;;;5022830;28;20240;-43
2021/06/05 06:14:53;;;;;;;1.57;1.40;;;25.70;52.40;;;;;;5033579;28;20440;-44
2021/06/05 06:17:18;;;;;;;2.00;1.30;;;25.70;52.40;;;;;;5027843;28;20470;-48
2021/06/05 06:19:44;;;;;;;1.60;1.50;;;25.70;52.30;;;;;;5022205;28;20278;-47
2021/06/05 06:22:10;;;;;;;2.10;1.53;;;25.70;52.20;;;;;;5034575;28;20966;-48
2021/06/05 06:24:35;;;;;;;2.13;1.10;;;25.60;52.20;;;;;;5020672;28;20189;-49
2021/06/05 06:27:01;;;;;;;3.33;1.43;;;25.60;52.40;;;;;;5033363;28;20197;-48
2021/06/05 06:29:31;;;;;;;1.70;1.60;;;25.60;52.40;;;;;;5034094;28;20193;-48
2021/06/05 06:31:58;;;;;;;2.50;1.40;;;25.40;52.00;;;;;;5031986;28;20193;-47
2021/06/05 06:34:26;;;;;;;1.50;1.40;;;25.40;52.50;;;;;;5034501;28;20471;-48
2021/06/05 06:36:52;;;;;;;1.90;1.33;;;25.50;52.30;;;;;;5020942;28;20475;-45
2021/06/05 06:39:18;;;;;;;2.70;1.70;;;25.60;52.20;;;;;;5033639;28;20523;-45
2021/06/05 06:41:44;;;;;;;1.40;1.30;;;25.60;51.70;;;;;;5030465;28;22082;-47
2021/06/05 06:44:10;;;;;;;2.13;1.33;;;25.60;50.90;;;;;;5023507;28;20675;-45
2021/06/05 06:46:40;;;;;;;3.33;1.70;;;25.70;51.00;;;;;;5026296;28;20194;-47
2021/06/05 06:49:07;;;;;;;3.63;1.40;;;25.80;51.30;;;;;;5028183;28;20447;-46
2021/06/05 06:51:35;;;;;;;2.90;1.70;;;25.80;51.10;;;;;;5029195;28;20443;-47
2021/06/05 06:54:00;;;;;;;5.70;1.47;;;25.90;50.80;;;;;;5022710;28;20428;-49
2021/06/05 06:56:26;;;;;;;2.20;1.43;;;26.00;50.60;;;;;;5017789;28;20955;-48
2021/06/05 06:58:52;;;;;;;3.03;1.40;;;26.10;50.50;;;;;;5030091;28;20278;-46
2021/06/05 07:01:18;;;;;;;1.40;1.30;;;26.20;50.20;;;;;;5033031;28;20342;-44
2021/06/05 07:03:44;;;;;;;2.30;1.47;;;26.30;49.90;;;;;;5027297;28;20186;-48
2021/06/05 07:06:11;;;;;;;2.30;1.30;;;26.30;49.70;;;;;;5020799;28;20434;-48
2021/06/05 07:08:40;;;;;;;3.10;1.60;;;26.40;49.50;;;;;;5024752;28;20205;-48
2021/06/05 07:11:09;;;;;;;2.50;2.30;;;26.40;49.50;;;;;;5025072;28;20906;-48
2021/06/05 07:13:35;;;;;;;2.67;1.50;;;26.40;49.50;;;;;;5020886;28;20871;-47
2021/06/05 07:16:01;;;;;;;1.77;1.40;;;26.40;49.60;;;;;;5029662;28;20511;-48
2021/06/05 07:18:29;;;;;;;2.40;1.43;;;26.40;49.30;;;;;;5030193;28;20249;-48
2021/06/05 07:20:55;;;;;;;2.53;1.37;;;26.40;49.60;;;;;;5024407;28;20497;-48
2021/06/05 07:23:25;;;;;;;2.00;1.53;;;26.50;49.60;;;;;;5053557;28;20513;-44
2021/06/05 07:25:51;;;;;;;1.70;1.60;;;26.70;49.40;;;;;;5044178;28;20958;-44
2021/06/05 07:28:23;;;;;;;2.33;1.30;;;26.80;49.00;;;;;;5027826;28;20447;-46
2021/06/05 07:30:50;;;;;;;3.27;1.67;;;26.80;49.00;;;;;;5032400;28;20424;-48
2021/06/05 07:33:17;;;;;;;4.60;1.73;;;26.90;49.40;;;;;;5025646;28;20425;-44
2021/06/05 07:35:43;;;;;;;6.70;1.60;;;27.10;48.70;;;;;;5033522;28;20420;-44
2021/06/05 07:38:12;;;;;;;2.10;1.47;;;27.10;48.40;;;;;;5031733;28;20463;-47
2021/06/05 07:40:40;;;;;;;7.60;2.77;;;27.00;49.30;;;;;;5032234;28;20502;-48
2021/06/05 07:43:06;;;;;;;5.50;2.67;;;27.20;48.70;;;;;;5031266;28;20432;-44
2021/06/05 07:45:31;;;;;;;5.13;2.90;;;27.50;48.70;;;;;;5033114;28;20426;-48
2021/06/05 07:47:57;;;;;;;4.13;1.93;;;27.70;48.20;;;;;;5033722;28;20197;-49
2021/06/05 07:50:23;;;;;;;1.83;1.40;;;28.00;47.60;;;;;;5032454;28;20201;-48
2021/06/05 07:52:49;;;;;;;2.63;2.30;;;28.30;46.90;;;;;;5031207;28;20201;-48
2021/06/05 07:55:15;;;;;;;3.60;2.00;;;28.40;46.00;;;;;;5032838;28;20962;-48
2021/06/05 07:57:41;;;;;;;4.47;2.00;;;28.50;45.90;;;;;;5032051;28;20181;-49
2021/06/05 08:00:11;;;;;;;3.17;1.83;;;28.50;45.90;;;;;;5031898;28;20532;-48
2021/06/05 08:02:37;;;;;;;3.00;1.90;;;28.60;45.40;;;;;;5031305;28;20590;-48
2021/06/05 08:05:04;;;;;;;2.40;1.93;;;28.50;45.50;;;;;;5030679;28;20557;-48
2021/06/05 08:07:29;;;;;;;2.60;1.87;;;28.60;45.60;;;;;;5031956;28;20197;-48
2021/06/05 08:09:55;;;;;;;1.73;1.60;;;28.70;45.30;;;;;;5032318;28;20832;-48
2021/06/05 08:12:21;;;;;;;3.77;2.07;;;28.70;45.70;;;;;;5032920;28;20219;-48
2021/06/05 08:14:46;;;;;;;4.13;2.00;;;28.80;45.80;;;;;;5028000;28;20201;-48
2021/06/05 08:17:12;;;;;;;2.83;1.90;;;28.80;45.60;;;;;;5028802;28;20363;-49
2021/06/05 08:19:40;;;;;;;3.30;1.80;;;28.80;45.70;;;;;;5023652;28;20317;-45
2021/06/05 08:22:05;;;;;;;1.80;1.70;;;28.90;45.70;;;;;;5028976;28;20675;-49
2021/06/05 08:24:31;;;;;;;3.73;1.97;;;28.90;45.70;;;;;;5018976;28;20436;-48
2021/06/05 08:26:57;;;;;;;2.10;2.00;;;28.90;46.00;;;;;;5020297;28;20561;-48
2021/06/05 08:29:22;;;;;;;5.23;2.33;;;28.90;45.90;;;;;;5022993;28;20193;-48
2021/06/05 08:31:49;;;;;;;2.30;2.10;;;28.80;45.80;;;;;;5023267;28;20711;-49
2021/06/05 08:34:16;;;;;;;2.10;1.77;;;28.70;46.30;;;;;;5028808;28;20225;-46
2021/06/05 08:36:41;;;;;;;2.70;1.80;;;28.50;46.20;;;;;;5025371;28;20441;-48
2021/06/05 08:39:08;;;;;;;2.80;2.30;;;28.40;46.80;;;;;;5029804;28;20769;-48
2021/06/05 08:41:50;;;;;;;2.90;2.03;;;28.30;46.80;;;;;;5034486;28;20193;-46
2021/06/05 08:44:38;;;;;;;6.13;2.13;;;28.40;46.90;;;;;;5020590;28;20433;-44
2021/06/05 08:47:21;;;;;;;4.97;2.30;;;28.50;46.80;;;;;;5022351;28;20840;-44
2021/06/05 08:49:47;;;;;;;2.63;2.33;;;28.40;46.80;;;;;;5025108;28;20480;-47
2021/06/05 08:52:36;;;;;;;2.00;1.87;;;28.40;47.40;;;;;;5026363;28;20524;-46
2021/06/05 08:55:26;;;;;;;2.10;1.90;;;28.40;46.70;;;;;;5021217;28;20448;-48
2021/06/05 08:58:29;;;;;;;2.23;2.00;;;28.40;46.70;;;;;;5016077;28;20502;-45
2021/06/05 09:00:59;;;;;;;4.00;1.87;;;28.30;46.90;;;;;;4991224;28;20551;-49
2021/06/05 09:03:27;;;;;;;4.20;1.90;;;28.20;46.40;;;;;;5018434;28;20454;-46
2021/06/05 09:05:57;;;;;;;17.67;3.93;;;28.20;46.50;;;;;;5018748;28;20458;-45
2021/06/05 09:08:24;;;;;;;10.70;2.70;;;28.30;46.40;;;;;;5016581;28;20966;-44
2021/06/05 09:10:55;;;;;;;24.50;4.73;;;28.30;46.50;;;;;;5027503;28;20455;-45
2021/06/05 09:13:21;;;;;;;11.93;3.60;;;28.30;46.40;;;;;;5030753;28;20919;-47
2021/06/05 09:15:46;;;;;;;6.13;2.93;;;28.40;46.70;;;;;;5024058;28;20450;-48
2021/06/05 09:18:13;;;;;;;9.07;3.00;;;28.30;46.70;;;;;;5018893;28;20468;-45
2021/06/05 09:20:41;;;;;;;3.40;2.10;;;28.40;46.70;;;;;;5023813;28;20681;-44
2021/06/05 09:23:33;;;;;;;6.13;2.40;;;28.40;46.40;;;;;;5018091;28;20447;-48
2021/06/05 09:26:20;;;;;;;5.37;2.33;;;28.30;46.70;;;;;;5015731;28;21270;-49
2021/06/05 09:28:46;;;;;;;2.00;1.70;;;28.30;46.90;;;;;;5015773;28;20522;-48
2021/06/05 09:31:22;;;;;;;2.33;2.10;;;28.20;47.40;;;;;;5019414;28;20444;-48
2021/06/05 09:33:49;;;;;;;2.13;1.80;;;28.20;46.60;;;;;;5020211;28;20432;-45
2021/06/05 09:36:22;;;;;;;2.13;2.03;;;28.20;46.80;;;;;;5024696;28;20441;-48
2021/06/05 09:38:53;;;;;;;1.90;1.80;;;28.20;46.60;;;;;;5022804;28;20452;-48
2021/06/05 09:41:24;;;;;;;2.00;1.80;;;28.10;46.90;;;;;;5021883;28;20452;-47
2021/06/05 09:43:52;;;;;;;2.20;2.10;;;28.00;47.20;;;;;;5022397;28;20493;-44
2021/06/05 09:46:26;;;;;;;1.80;1.60;;;28.00;47.10;;;;;;5021829;28;20425;-45
2021/06/05 09:49:18;;;;;;;2.20;2.00;;;28.10;47.00;;;;;;5024298;28;20448;-45
2021/06/05 09:51:59;;;;;;;1.83;1.73;;;28.10;47.00;;;;;;5025100;28;20475;-47
2021/06/05 09:54:33;;;;;;;3.03;1.90;;;28.00;47.00;;;;;;5025801;28;20491;-45
2021/06/05 09:57:17;;;;;;;2.40;2.03;;;28.10;47.00;;;;;;5027922;28;20473;-45
2021/06/05 09:59:42;;;;;;;1.90;1.80;;;28.20;46.90;;;;;;5017464;28;20498;-46
2021/06/05 10:02:20;;;;;;;2.17;2.00;;;28.10;46.90;;;;;;5020098;28;20429;-45
2021/06/05 10:05:04;;;;;;;2.63;2.00;;;28.00;47.50;;;;;;5023668;28;20194;-44
2021/06/05 10:07:30;;;;;;;1.77;1.67;;;28.00;46.90;;;;;;5020379;28;20486;-45
2021/06/05 10:10:21;;;;;;;2.60;1.80;;;28.00;46.90;;;;;;5026857;28;20841;-44
2021/06/05 10:12:50;;;;;;;2.20;2.10;;;28.20;47.20;;;;;;5022094;28;20586;-47
2021/06/05 10:15:20;;;;;;;1.90;1.80;;;28.30;47.30;;;;;;5029179;28;20495;-44
2021/06/05 10:17:55;;;;;;;5.57;2.23;;;28.20;47.30;;;;;;5018107;28;20482;-48
2021/06/05 10:20:24;;;;;;;1.80;1.60;;;28.30;46.90;;;;;;5025543;28;22119;-48
2021/06/05 10:22:54;;;;;;;3.43;2.10;;;28.20;46.70;;;;;;5011628;28;20445;-48
2021/06/05 10:25:33;;;;;;;1.80;1.70;;;28.20;46.60;;;;;;5019303;28;20435;-44
2021/06/05 10:28:07;;;;;;;6.10;1.93;;;28.40;46.30;;;;;;5020411;28;20446;-47
2021/06/05 10:30:38;;;;;;;2.23;1.80;;;28.50;46.10;;;;;;5025693;28;20458;-45
2021/06/05 10:33:06;;;;;;;3.50;1.83;;;28.40;46.00;;;;;;5021941;28;20452;-44
2021/06/05 10:35:36;;;;;;;2.30;2.10;;;28.20;46.80;;;;;;5019432;28;20443;-49
2021/06/05 10:38:29;;;;;;;2.07;1.87;;;28.20;46.70;;;;;;5016955;28;20440;-44
2021/06/05 10:40:56;;;;;;;1.90;1.80;;;28.20;46.60;;;;;;5026522;28;20494;-48
2021/06/05 10:43:21;;;;;;;1.63;1.53;;;28.30;46.60;;;;;;5024638;28;20424;-46
2021/06/05 10:45:49;;;;;;;2.63;1.73;;;28.40;46.40;;;;;;5015710;28;20478;-44
2021/06/05 10:48:32;;;;;;;2.20;2.00;;;28.30;46.80;;;;;;5015575;28;20538;-47
2021/06/05 10:51:03;;;;;;;1.90;1.70;;;28.10;47.30;;;;;;5021142;28;20440;-45
2021/06/05 10:53:36;;;;;;;3.63;1.83;;;28.10;47.20;;;;;;5020022;28;20437;-48
2021/06/05 10:56:29;;;;;;;3.60;1.60;;;28.20;47.70;;;;;;5021201;28;20508;-44
2021/06/05 10:58:55;;;;;;;2.23;1.83;;;28.20;48.90;;;;;;5022644;28;20536;-45
2021/06/05 11:01:21;;;;;;;2.93;1.60;;;28.20;48.40;;;;;;5017773;28;21259;-48
2021/06/05 11:04:00;;;;;;;1.90;1.70;;;28.40;50.70;;;;;;5024737;28;20572;-44
2021/06/05 11:06:47;;;;;;;7.37;2.43;;;28.40;49.70;;;;;;5030679;28;20562;-44
2021/06/05 11:09:26;;;;;;;3.10;1.80;;;28.30;50.30;;;;;;5024570;28;20440;-44
2021/06/05 11:11:53;;;;;;;2.73;1.83;;;28.10;50.00;;;;;;5023519;28;20448;-45
2021/06/05 11:14:21;;;;;;;3.60;2.00;;;28.30;50.10;;;;;;5025314;28;20438;-44
2021/06/05 11:16:59;;;;;;;5.20;1.93;;;28.50;50.50;;;;;;5025329;28;20988;-44
2021/06/05 11:19:41;;;;;;;2.10;1.77;;;28.60;51.00;;;;;;5023732;28;21008;-45
2021/06/05 11:22:21;;;;;;;2.60;1.67;;;28.60;50.60;;;;;;5023384;28;20906;-44
2021/06/05 11:25:05;;;;;;;3.67;2.27;;;28.70;49.70;;;;;;5032657;28;20444;-45
2021/06/05 11:27:36;;;;;;;2.80;1.63;;;28.70;49.30;;;;;;5032318;28;20440;-47
2021/06/05 11:30:27;;;;;;;4.07;1.73;;;28.90;49.70;;;;;;5022355;28;20445;-45
2021/06/05 11:33:03;;;;;;;2.70;1.40;;;28.90;50.20;;;;;;5025403;28;20444;-45
2021/06/05 11:35:58;;;;;;;2.97;2.30;;;29.00;49.50;;;;;;5032858;28;20451;-45
2021/06/05 11:38:23;;;;;;;4.93;1.87;;;28.90;48.20;;;;;;5020717;28;20487;-45
2021/06/05 11:40:52;;;;;;;1.97;1.70;;;28.80;48.30;;;;;;5025374;28;20508;-44
2021/06/05 11:43:32;;;;;;;2.73;2.20;;;28.90;48.70;;;;;;5021080;28;20189;-45
2021/06/05 11:45:58;;;;;;;2.27;1.50;;;28.90;48.60;;;;;;5030008;28;20474;-44
2021/06/05 11:48:49;;;;;;;2.57;1.70;;;28.90;48.40;;;;;;5022971;28;20432;-48
2021/06/05 11:51:21;;;;;;;2.20;1.60;;;29.10;48.10;;;;;;5030134;28;20207;-50
2021/06/05 11:53:48;;;;;;;2.80;2.00;;;29.00;48.30;;;;;;5022264;28;20445;-47
2021/06/05 11:56:20;;;;;;;2.30;1.80;;;29.10;47.90;;;;;;5030638;28;20438;-49
2021/06/05 11:58:46;;;;;;;2.47;1.80;;;28.70;48.70;;;;;;5029984;28;20439;-48
2021/06/05 12:01:14;;;;;;;3.23;2.63;;;28.40;49.70;;;;;;5021774;28;20489;-46
2021/06/05 12:03:45;;;;;;;2.40;2.20;;;28.10;53.00;;;;;;5023903;28;20959;-46
2021/06/05 12:06:25;;;;;;;1.90;1.80;;;28.00;53.90;;;;;;5020356;28;20535;-48
2021/06/05 12:09:02;;;;;;;2.37;2.17;;;28.00;53.90;;;;;;5020406;28;20472;-49
2021/06/05 12:11:44;;;;;;;5.03;2.37;;;28.00;53.10;;;;;;5018201;28;20424;-47
2021/06/05 12:14:23;;;;;;;2.50;2.30;;;28.00;54.80;;;;;;5021357;28;20931;-47
2021/06/05 12:16:55;;;;;;;2.87;2.13;;;28.20;54.40;;;;;;5022675;28;20571;-49
2021/06/05 12:19:32;;;;;;;3.03;2.13;;;28.20;55.00;;;;;;5021119;28;20507;-48
2021/06/05 12:22:14;;;;;;;2.80;2.07;;;28.20;55.40;;;;;;5022413;28;21019;-47
2021/06/05 12:24:44;;;;;;;4.43;1.93;;;28.30;54.30;;;;;;5018583;28;20441;-46
2021/06/05 12:27:39;;;;;;;2.43;2.23;;;28.60;53.80;;;;;;5022444;28;21003;-47
2021/06/05 12:30:24;;;;;;;3.27;2.27;;;28.90;53.30;;;;;;5014516;28;20449;-47
2021/06/05 12:33:02;;;;;;;2.77;2.30;;;29.00;51.50;;;;;;5028985;28;20448;-45
2021/06/05 12:35:38;;;;;;;2.03;1.93;;;29.10;51.00;;;;;;5025705;28;20894;-47
2021/06/05 12:38:06;;;;;;;7.57;2.77;;;29.30;53.40;;;;;;5016695;28;20511;-44
2021/06/05 12:40:45;;;;;;;2.90;2.33;;;29.50;53.10;;;;;;5018364;28;20502;-45
2021/06/05 12:43:16;;;;;;;2.07;1.80;;;29.70;51.70;;;;;;5028848;28;20448;-45
2021/06/05 12:45:41;;;;;;;3.50;2.10;;;29.90;50.90;;;;;;5026646;28;20435;-46
2021/06/05 12:48:12;;;;;;;3.00;2.13;;;30.00;49.10;;;;;;5021705;28;20429;-48
2021/06/05 12:50:42;;;;;;;1.47;1.30;;;30.00;48.50;;;;;;5018556;28;20264;-47
2021/06/05 12:53:24;;;;;;;2.17;1.50;;;29.90;46.40;;;;;;5029283;28;20428;-44
2021/06/05 12:55:52;;;;;;;1.50;1.40;;;29.80;46.00;;;;;;5029156;28;20933;-45
2021/06/05 12:58:36;;;;;;;1.70;1.60;;;29.60;46.00;;;;;;5028639;28;20523;-45
2021/06/05 13:01:03;;;;;;;1.67;1.57;;;29.50;46.30;;;;;;5021321;28;20512;-44